sensor_id;sensor_type;location;lat;lon;timestamp;pressure;altitude;pressure_sealevel;temperature;humidity
61506;BME280;47366;51.916;4.574;2023-05-25T00:02:09;102720.06;;;12.43;69.36
61506;BME280;47366;51.916;4.574;2023-05-25T00:04:39;102714.69;;;12.42;69.33
61506;BME280;47366;51.916;4.574;2023-05-25T00:07:05;102710.34;;;12.38;69.05
61506;BME280;47366;51.916;4.574;2023-05-25T00:09:30;102718.53;;;12.36;70.01
61506;BME280;47366;51.916;4.574;2023-05-25T00:11:56;102708.72;;;12.32;69.90
61506;BME280;47366;51.916;4.574;2023-05-25T00:14:23;102711.41;;;12.33;69.27
61506;BME280;47366;51.916;4.574;2023-05-25T00:16:49;102717.66;;;12.36;70.03
61506;BME280;47366;51.916;4.574;2023-05-25T00:19:16;102711.63;;;12.27;69.35
61506;BME280;47366;51.916;4.574;2023-05-25T00:21:43;102718.59;;;12.35;69.93
61506;BME280;47366;51.916;4.574;2023-05-25T00:24:10;102722.28;;;12.33;70.03
61506;BME280;47366;51.916;4.574;2023-05-25T00:26:35;102716.13;;;12.28;70.99
61506;BME280;47366;51.916;4.574;2023-05-25T00:29:02;102719.91;;;12.24;70.07
61506;BME280;47366;51.916;4.574;2023-05-25T00:31:28;102711.88;;;12.21;69.58
61506;BME280;47366;51.916;4.574;2023-05-25T00:33:53;102717.31;;;12.21;69.86
61506;BME280;47366;51.916;4.574;2023-05-25T00:36:19;102712.94;;;12.17;71.12
61506;BME280;47366;51.916;4.574;2023-05-25T00:38:44;102708.69;;;12.10;70.81
61506;BME280;47366;51.916;4.574;2023-05-25T00:41:15;102710.47;;;12.11;70.42
61506;BME280;47366;51.916;4.574;2023-05-25T00:43:40;102716.69;;;12.13;71.28
61506;BME280;47366;51.916;4.574;2023-05-25T00:46:06;102707.84;;;12.08;70.98
61506;BME280;47366;51.916;4.574;2023-05-25T00:48:34;102713.41;;;12.05;72.12
61506;BME280;47366;51.916;4.574;2023-05-25T00:50:59;102713.28;;;12.08;71.44
61506;BME280;47366;51.916;4.574;2023-05-25T00:53:24;102719.63;;;12.08;71.00
61506;BME280;47366;51.916;4.574;2023-05-25T00:58:41;102723.53;;;12.01;71.63
61506;BME280;47366;51.916;4.574;2023-05-25T01:01:09;102726.09;;;12.04;71.56
61506;BME280;47366;51.916;4.574;2023-05-25T01:03:40;102723.56;;;12.00;71.54
61506;BME280;47366;51.916;4.574;2023-05-25T01:06:14;102720.00;;;11.98;72.43
61506;BME280;47366;51.916;4.574;2023-05-25T01:08:43;102734.19;;;12.06;71.54
61506;BME280;47366;51.916;4.574;2023-05-25T01:11:13;102727.00;;;12.05;71.50
61506;BME280;47366;51.916;4.574;2023-05-25T01:13:39;102733.25;;;12.07;71.74
61506;BME280;47366;51.916;4.574;2023-05-25T01:16:06;102736.91;;;12.06;72.31
61506;BME280;47366;51.916;4.574;2023-05-25T01:18:32;102731.72;;;12.00;71.77
61506;BME280;47366;51.916;4.574;2023-05-25T01:21:10;102741.69;;;11.99;73.48
61506;BME280;47366;51.916;4.574;2023-05-25T01:23:54;102742.69;;;11.97;73.33
61506;BME280;47366;51.916;4.574;2023-05-25T01:26:20;102732.88;;;11.93;72.17
61506;BME280;47366;51.916;4.574;2023-05-25T01:28:50;102743.63;;;11.96;72.82
61506;BME280;47366;51.916;4.574;2023-05-25T01:31:22;102741.06;;;11.91;73.37
61506;BME280;47366;51.916;4.574;2023-05-25T01:33:52;102746.47;;;11.93;72.91
61506;BME280;47366;51.916;4.574;2023-05-25T01:36:18;102748.22;;;11.94;72.89
61506;BME280;47366;51.916;4.574;2023-05-25T01:38:43;102749.19;;;11.93;72.95
61506;BME280;47366;51.916;4.574;2023-05-25T01:41:09;102742.16;;;11.87;73.37
61506;BME280;47366;51.916;4.574;2023-05-25T01:43:34;102744.00;;;11.85;73.26
61506;BME280;47366;51.916;4.574;2023-05-25T01:46:18;102757.38;;;11.91;73.33
61506;BME280;47366;51.916;4.574;2023-05-25T01:51:38;102755.72;;;11.87;73.38
61506;BME280;47366;51.916;4.574;2023-05-25T01:54:18;102752.31;;;11.80;73.35
61506;BME280;47366;51.916;4.574;2023-05-25T01:56:45;102760.47;;;11.80;73.04
61506;BME280;47366;51.916;4.574;2023-05-25T01:59:14;102750.53;;;11.79;73.75
61506;BME280;47366;51.916;4.574;2023-05-25T02:01:41;102763.22;;;11.79;74.10
61506;BME280;47366;51.916;4.574;2023-05-25T02:04:07;102756.06;;;11.76;73.80
61506;BME280;47366;51.916;4.574;2023-05-25T02:06:34;102759.75;;;11.75;74.06
61506;BME280;47366;51.916;4.574;2023-05-25T02:09:00;102762.53;;;11.72;74.95
61506;BME280;47366;51.916;4.574;2023-05-25T02:11:26;102756.44;;;11.65;74.96
61506;BME280;47366;51.916;4.574;2023-05-25T02:13:51;102766.25;;;11.69;74.59
61506;BME280;47366;51.916;4.574;2023-05-25T02:16:17;102763.63;;;11.68;75.01
61506;BME280;47366;51.916;4.574;2023-05-25T02:18:42;102761.88;;;11.65;74.74
61506;BME280;47366;51.916;4.574;2023-05-25T02:21:09;102752.13;;;11.60;74.63
61506;BME280;47366;51.916;4.574;2023-05-25T02:23:34;102769.13;;;11.65;75.10
61506;BME280;47366;51.916;4.574;2023-05-25T02:26:00;102758.44;;;11.60;75.01
61506;BME280;47366;51.916;4.574;2023-05-25T02:28:25;102762.25;;;11.55;74.67
61506;BME280;47366;51.916;4.574;2023-05-25T02:30:50;102766.84;;;11.53;75.58
61506;BME280;47366;51.916;4.574;2023-05-25T02:33:16;102761.53;;;11.50;75.36
61506;BME280;47366;51.916;4.574;2023-05-25T02:35:42;102758.81;;;11.50;75.37
61506;BME280;47366;51.916;4.574;2023-05-25T02:38:08;102760.66;;;11.49;75.62
61506;BME280;47366;51.916;4.574;2023-05-25T02:40:33;102768.63;;;11.54;75.68
61506;BME280;47366;51.916;4.574;2023-05-25T02:42:59;102766.81;;;11.54;75.22
61506;BME280;47366;51.916;4.574;2023-05-25T02:45:24;102772.06;;;11.59;74.59
61506;BME280;47366;51.916;4.574;2023-05-25T02:47:50;102772.00;;;11.60;75.69
61506;BME280;47366;51.916;4.574;2023-05-25T02:50:15;102760.25;;;11.60;75.13
61506;BME280;47366;51.916;4.574;2023-05-25T02:52:40;102766.66;;;11.59;75.61
61506;BME280;47366;51.916;4.574;2023-05-25T02:55:06;102761.22;;;11.59;76.30
61506;BME280;47366;51.916;4.574;2023-05-25T02:57:34;102767.53;;;11.59;76.08
61506;BME280;47366;51.916;4.574;2023-05-25T03:00:01;102755.88;;;11.56;76.44
61506;BME280;47366;51.916;4.574;2023-05-25T03:02:26;102770.50;;;11.52;76.81
61506;BME280;47366;51.916;4.574;2023-05-25T03:04:53;102775.72;;;11.58;76.94
61506;BME280;47366;51.916;4.574;2023-05-25T03:07:19;102775.84;;;11.55;76.25
61506;BME280;47366;51.916;4.574;2023-05-25T03:09:45;102772.28;;;11.53;76.96
61506;BME280;47366;51.916;4.574;2023-05-25T03:12:10;102783.84;;;11.58;76.88
61506;BME280;47366;51.916;4.574;2023-05-25T03:14:36;102776.81;;;11.52;76.53
61506;BME280;47366;51.916;4.574;2023-05-25T03:17:01;102787.84;;;11.47;76.19
61506;BME280;47366;51.916;4.574;2023-05-25T03:19:27;102788.78;;;11.46;76.36
61506;BME280;47366;51.916;4.574;2023-05-25T03:21:52;102789.75;;;11.44;76.91
61506;BME280;47366;51.916;4.574;2023-05-25T03:24:17;102793.41;;;11.43;77.04
61506;BME280;47366;51.916;4.574;2023-05-25T03:26:43;102792.66;;;11.39;76.96
61506;BME280;47366;51.916;4.574;2023-05-25T03:29:08;102789.13;;;11.36;76.56
61506;BME280;47366;51.916;4.574;2023-05-25T03:31:33;102788.38;;;11.32;77.09
61506;BME280;47366;51.916;4.574;2023-05-25T03:33:59;102798.22;;;11.35;76.93
61506;BME280;47366;51.916;4.574;2023-05-25T03:36:24;102800.13;;;11.31;76.86
61506;BME280;47366;51.916;4.574;2023-05-25T03:38:52;102793.94;;;11.27;76.85
61506;BME280;47366;51.916;4.574;2023-05-25T03:41:19;102804.88;;;11.24;77.36
61506;BME280;47366;51.916;4.574;2023-05-25T03:43:44;102777.09;;;11.18;76.93
61506;BME280;47366;51.916;4.574;2023-05-25T03:46:10;102795.16;;;11.17;77.22
61506;BME280;47366;51.916;4.574;2023-05-25T03:48:36;102788.84;;;11.17;77.23
61506;BME280;47366;51.916;4.574;2023-05-25T03:51:01;102788.00;;;11.15;77.29
61506;BME280;47366;51.916;4.574;2023-05-25T03:53:27;102796.13;;;11.16;77.34
61506;BME280;47366;51.916;4.574;2023-05-25T03:55:52;102796.06;;;11.18;77.27
61506;BME280;47366;51.916;4.574;2023-05-25T03:58:18;102800.56;;;11.19;76.98
61506;BME280;47366;51.916;4.574;2023-05-25T04:00:43;102801.50;;;11.18;77.34
61506;BME280;47366;51.916;4.574;2023-05-25T04:03:08;102789.97;;;11.11;77.18
61506;BME280;47366;51.916;4.574;2023-05-25T04:05:35;102812.38;;;11.16;77.12
61506;BME280;47366;51.916;4.574;2023-05-25T04:08:01;102813.31;;;11.15;77.12
61506;BME280;47366;51.916;4.574;2023-05-25T04:10:27;102805.25;;;11.14;77.05
61506;BME280;47366;51.916;4.574;2023-05-25T04:12:52;102806.16;;;11.13;77.38
61506;BME280;47366;51.916;4.574;2023-05-25T04:15:21;102804.50;;;11.09;77.31
61506;BME280;47366;51.916;4.574;2023-05-25T04:17:46;102820.66;;;11.12;77.26
61506;BME280;47366;51.916;4.574;2023-05-25T04:20:11;102814.28;;;11.13;77.16
61506;BME280;47366;51.916;4.574;2023-05-25T04:22:37;102802.59;;;11.11;76.58
61506;BME280;47366;51.916;4.574;2023-05-25T04:25:06;102818.72;;;11.15;77.31
61506;BME280;47366;51.916;4.574;2023-05-25T04:27:32;102812.38;;;11.16;77.18
61506;BME280;47366;51.916;4.574;2023-05-25T04:29:57;102809.78;;;11.13;77.28
61506;BME280;47366;51.916;4.574;2023-05-25T04:32:23;102820.63;;;11.13;77.17
61506;BME280;47366;51.916;4.574;2023-05-25T04:34:49;102820.63;;;11.13;77.52
61506;BME280;47366;51.916;4.574;2023-05-25T04:37:14;102823.19;;;11.18;76.72
61506;BME280;47366;51.916;4.574;2023-05-25T04:39:39;102833.22;;;11.16;77.29
61506;BME280;47366;51.916;4.574;2023-05-25T04:42:05;102818.88;;;11.11;77.32
61506;BME280;47366;51.916;4.574;2023-05-25T04:44:31;102843.84;;;11.22;76.97
61506;BME280;47366;51.916;4.574;2023-05-25T04:46:57;102840.22;;;11.23;77.83
61506;BME280;47366;51.916;4.574;2023-05-25T04:49:24;102831.16;;;11.22;76.39
61506;BME280;47366;51.916;4.574;2023-05-25T04:51:50;102833.72;;;11.27;77.79
61506;BME280;47366;51.916;4.574;2023-05-25T04:54:16;102840.06;;;11.27;77.33
61506;BME280;47366;51.916;4.574;2023-05-25T04:56:41;102836.44;;;11.27;76.45
61506;BME280;47366;51.916;4.574;2023-05-25T04:59:07;102841.78;;;11.30;77.73
61506;BME280;47366;51.916;4.574;2023-05-25T05:01:32;102829.09;;;11.31;77.38
61506;BME280;47366;51.916;4.574;2023-05-25T05:03:58;102832.69;;;11.31;77.52
61506;BME280;47366;51.916;4.574;2023-05-25T05:06:24;102850.50;;;11.40;77.04
61506;BME280;47366;51.916;4.574;2023-05-25T05:08:49;102855.09;;;11.38;76.55
61506;BME280;47366;51.916;4.574;2023-05-25T05:11:15;102853.22;;;11.40;75.69
61506;BME280;47366;51.916;4.574;2023-05-25T05:13:41;102857.56;;;11.45;76.59
61506;BME280;47366;51.916;4.574;2023-05-25T05:16:06;102859.13;;;11.53;76.17
61506;BME280;47366;51.916;4.574;2023-05-25T05:18:32;102860.91;;;11.54;75.85
61506;BME280;47366;51.916;4.574;2023-05-25T05:20:57;102864.25;;;11.62;75.90
61506;BME280;47366;51.916;4.574;2023-05-25T05:23:22;102863.16;;;11.67;75.92
61506;BME280;47366;51.916;4.574;2023-05-25T05:25:48;102866.66;;;11.71;75.78
61506;BME280;47366;51.916;4.574;2023-05-25T05:28:14;102869.94;;;11.81;75.53
61506;BME280;47366;51.916;4.574;2023-05-25T05:30:39;102869.72;;;11.88;75.05
61506;BME280;47366;51.916;4.574;2023-05-25T05:33:05;102865.91;;;11.94;75.45
61506;BME280;47366;51.916;4.574;2023-05-25T05:35:30;102863.84;;;12.01;75.24
61506;BME280;47366;51.916;4.574;2023-05-25T05:37:55;102867.97;;;12.13;74.86
61506;BME280;47366;51.916;4.574;2023-05-25T05:40:21;102867.69;;;12.20;74.71
61506;BME280;47366;51.916;4.574;2023-05-25T05:42:46;102872.63;;;12.34;74.18
61506;BME280;47366;51.916;4.574;2023-05-25T05:45:11;102874.34;;;12.37;74.23
61506;BME280;47366;51.916;4.574;2023-05-25T05:47:37;102871.34;;;12.44;74.19
61506;BME280;47366;51.916;4.574;2023-05-25T05:50:02;102876.38;;;12.55;73.86
61506;BME280;47366;51.916;4.574;2023-05-25T05:52:28;102880.59;;;12.64;73.22
61506;BME280;47366;51.916;4.574;2023-05-25T05:54:53;102879.59;;;12.66;73.41
61506;BME280;47366;51.916;4.574;2023-05-25T05:57:19;102883.78;;;12.75;73.25
61506;BME280;47366;51.916;4.574;2023-05-25T05:59:45;102897.16;;;12.81;72.96
61506;BME280;47366;51.916;4.574;2023-05-25T06:02:10;102882.41;;;12.87;72.81
61506;BME280;47366;51.916;4.574;2023-05-25T06:04:35;102892.91;;;12.98;72.56
61506;BME280;47366;51.916;4.574;2023-05-25T06:07:02;102883.72;;;13.00;71.90
61506;BME280;47366;51.916;4.574;2023-05-25T06:09:27;102906.69;;;13.16;71.72
61506;BME280;47366;51.916;4.574;2023-05-25T06:11:53;102889.28;;;13.21;71.67
61506;BME280;47366;51.916;4.574;2023-05-25T06:14:18;102897.00;;;13.33;71.30
61506;BME280;47366;51.916;4.574;2023-05-25T06:16:43;102900.97;;;13.46;70.80
61506;BME280;47366;51.916;4.574;2023-05-25T06:19:09;102902.38;;;13.56;71.20
61506;BME280;47366;51.916;4.574;2023-05-25T06:21:34;102904.84;;;13.63;70.68
61506;BME280;47366;51.916;4.574;2023-05-25T06:24:01;102899.06;;;13.70;70.27
61506;BME280;47366;51.916;4.574;2023-05-25T06:26:27;102908.84;;;13.76;69.62
61506;BME280;47366;51.916;4.574;2023-05-25T06:28:52;102895.22;;;13.76;69.62
61506;BME280;47366;51.916;4.574;2023-05-25T06:31:17;102899.47;;;13.83;69.15
61506;BME280;47366;51.916;4.574;2023-05-25T06:33:43;102900.00;;;13.91;69.25
61506;BME280;47366;51.916;4.574;2023-05-25T06:36:08;102897.22;;;13.93;69.09
61506;BME280;47366;51.916;4.574;2023-05-25T06:38:35;102909.28;;;14.08;68.82
61506;BME280;47366;51.916;4.574;2023-05-25T06:41:00;102899.66;;;14.21;68.72
61506;BME280;47366;51.916;4.574;2023-05-25T06:43:28;102899.34;;;14.27;67.65
61506;BME280;47366;51.916;4.574;2023-05-25T06:45:53;102908.16;;;14.34;67.60
61506;BME280;47366;51.916;4.574;2023-05-25T06:48:18;102911.97;;;14.50;67.61
61506;BME280;47366;51.916;4.574;2023-05-25T06:50:44;102902.31;;;14.63;67.69
61506;BME280;47366;51.916;4.574;2023-05-25T06:53:13;102922.91;;;14.90;66.98
61506;BME280;47366;51.916;4.574;2023-05-25T06:55:39;102917.19;;;14.96;66.11
61506;BME280;47366;51.916;4.574;2023-05-25T06:58:05;102923.16;;;15.04;66.08
61506;BME280;47366;51.916;4.574;2023-05-25T07:00:31;102924.50;;;15.14;65.62
61506;BME280;47366;51.916;4.574;2023-05-25T07:02:58;102927.16;;;15.16;65.53
61506;BME280;47366;51.916;4.574;2023-05-25T07:05:25;102929.06;;;14.95;65.92
61506;BME280;47366;51.916;4.574;2023-05-25T07:07:51;102937.81;;;14.82;65.97
61506;BME280;47366;51.916;4.574;2023-05-25T07:10:16;102938.47;;;14.69;66.80
61506;BME280;47366;51.916;4.574;2023-05-25T07:12:41;102942.75;;;14.54;66.89
61506;BME280;47366;51.916;4.574;2023-05-25T07:15:07;102952.09;;;14.47;67.15
61506;BME280;47366;51.916;4.574;2023-05-25T07:17:33;102942.69;;;14.55;66.86
61506;BME280;47366;51.916;4.574;2023-05-25T07:20:00;102947.78;;;14.42;67.09
61506;BME280;47366;51.916;4.574;2023-05-25T07:22:26;102952.84;;;14.30;67.58
61506;BME280;47366;51.916;4.574;2023-05-25T07:24:51;102954.91;;;14.24;67.59
61506;BME280;47366;51.916;4.574;2023-05-25T07:27:16;102960.63;;;14.18;68.02
61506;BME280;47366;51.916;4.574;2023-05-25T07:29:43;102943.13;;;14.24;68.14
61506;BME280;47366;51.916;4.574;2023-05-25T07:32:09;102952.66;;;14.34;67.64
61506;BME280;47366;51.916;4.574;2023-05-25T07:34:34;102948.31;;;14.51;67.53
61506;BME280;47366;51.916;4.574;2023-05-25T07:37:00;102955.28;;;14.78;66.57
61506;BME280;47366;51.916;4.574;2023-05-25T07:39:25;102952.81;;;14.72;66.34
61506;BME280;47366;51.916;4.574;2023-05-25T07:41:50;102956.72;;;15.06;65.56
61506;BME280;47366;51.916;4.574;2023-05-25T07:44:16;102959.03;;;15.34;64.73
61506;BME280;47366;51.916;4.574;2023-05-25T07:46:42;102959.09;;;15.51;64.48
61506;BME280;47366;51.916;4.574;2023-05-25T07:49:07;102955.13;;;15.78;63.55
61506;BME280;47366;51.916;4.574;2023-05-25T07:51:40;102961.41;;;15.80;63.21
61506;BME280;47366;51.916;4.574;2023-05-25T07:54:05;102969.78;;;15.77;63.35
61506;BME280;47366;51.916;4.574;2023-05-25T07:56:30;102971.16;;;15.47;63.56
61506;BME280;47366;51.916;4.574;2023-05-25T07:58:56;102978.31;;;15.31;64.58
61506;BME280;47366;51.916;4.574;2023-05-25T08:01:22;102969.53;;;15.24;64.60
61506;BME280;47366;51.916;4.574;2023-05-25T08:03:48;102969.94;;;15.15;65.51
61506;BME280;47366;51.916;4.574;2023-05-25T08:06:13;102969.69;;;15.21;65.27
61506;BME280;47366;51.916;4.574;2023-05-25T08:08:39;102969.97;;;15.34;65.23
61506;BME280;47366;51.916;4.574;2023-05-25T08:11:06;102979.56;;;15.62;64.80
61506;BME280;47366;51.916;4.574;2023-05-25T08:13:31;102976.00;;;15.98;64.17
61506;BME280;47366;51.916;4.574;2023-05-25T08:15:56;102981.66;;;15.95;63.16
61506;BME280;47366;51.916;4.574;2023-05-25T08:18:22;102985.16;;;15.97;63.58
61506;BME280;47366;51.916;4.574;2023-05-25T08:20:47;102990.13;;;15.88;63.44
61506;BME280;47366;51.916;4.574;2023-05-25T08:23:12;102981.16;;;15.66;63.74
61506;BME280;47366;51.916;4.574;2023-05-25T08:25:38;102989.47;;;15.64;64.18
61506;BME280;47366;51.916;4.574;2023-05-25T08:28:03;102990.97;;;15.71;63.88
61506;BME280;47366;51.916;4.574;2023-05-25T08:30:28;102991.16;;;16.05;63.37
61506;BME280;47366;51.916;4.574;2023-05-25T08:32:54;102980.56;;;16.33;62.94
61506;BME280;47366;51.916;4.574;2023-05-25T08:35:20;102994.50;;;16.64;61.83
61506;BME280;47366;51.916;4.574;2023-05-25T08:37:45;102992.84;;;16.79;61.66
61506;BME280;47366;51.916;4.574;2023-05-25T08:40:15;102991.28;;;16.90;61.37
61506;BME280;47366;51.916;4.574;2023-05-25T08:42:42;102986.34;;;16.97;60.85
61506;BME280;47366;51.916;4.574;2023-05-25T08:45:08;102983.88;;;17.26;60.61
61506;BME280;47366;51.916;4.574;2023-05-25T08:47:39;102998.41;;;17.59;59.79
61506;BME280;47366;51.916;4.574;2023-05-25T08:50:08;102995.56;;;17.61;59.91
61506;BME280;47366;51.916;4.574;2023-05-25T08:52:35;102989.22;;;17.76;59.38
61506;BME280;47366;51.916;4.574;2023-05-25T08:55:07;102990.28;;;17.90;58.71
61506;BME280;47366;51.916;4.574;2023-05-25T08:57:49;102994.50;;;17.79;58.60
61506;BME280;47366;51.916;4.574;2023-05-25T09:00:20;102998.41;;;17.59;58.72
61506;BME280;47366;51.916;4.574;2023-05-25T09:02:59;102989.72;;;17.35;59.14
61506;BME280;47366;51.916;4.574;2023-05-25T09:05:33;102993.53;;;17.00;59.67
61506;BME280;47366;51.916;4.574;2023-05-25T09:07:59;102997.78;;;16.70;60.07
61506;BME280;47366;51.916;4.574;2023-05-25T09:10:26;102994.19;;;16.52;59.72
61506;BME280;47366;51.916;4.574;2023-05-25T09:12:52;102994.88;;;16.39;61.58
61506;BME280;47366;51.916;4.574;2023-05-25T09:15:18;102994.53;;;16.27;61.25
61506;BME280;47366;51.916;4.574;2023-05-25T09:17:44;103004.41;;;16.12;61.35
61506;BME280;47366;51.916;4.574;2023-05-25T09:20:10;103008.38;;;16.07;61.87
61506;BME280;47366;51.916;4.574;2023-05-25T09:22:37;102995.06;;;15.99;61.40
61506;BME280;47366;51.916;4.574;2023-05-25T09:25:05;103003.34;;;15.98;61.77
61506;BME280;47366;51.916;4.574;2023-05-25T09:27:34;102996.63;;;16.05;61.80
61506;BME280;47366;51.916;4.574;2023-05-25T09:30:01;102998.88;;;16.14;61.23
61506;BME280;47366;51.916;4.574;2023-05-25T09:32:26;103001.69;;;16.12;60.54
61506;BME280;47366;51.916;4.574;2023-05-25T09:34:52;102995.81;;;16.20;60.68
61506;BME280;47366;51.916;4.574;2023-05-25T09:37:20;102991.41;;;16.35;60.45
61506;BME280;47366;51.916;4.574;2023-05-25T09:39:45;102997.53;;;16.58;60.42
61506;BME280;47366;51.916;4.574;2023-05-25T09:42:12;102995.84;;;16.72;60.24
61506;BME280;47366;51.916;4.574;2023-05-25T09:44:38;102993.28;;;16.69;60.18
61506;BME280;47366;51.916;4.574;2023-05-25T09:47:04;102986.44;;;16.61;60.55
61506;BME280;47366;51.916;4.574;2023-05-25T09:49:30;102997.84;;;16.51;60.36
61506;BME280;47366;51.916;4.574;2023-05-25T09:51:55;103005.59;;;16.43;61.04
61506;BME280;47366;51.916;4.574;2023-05-25T09:54:21;102998.38;;;16.42;60.75
61506;BME280;47366;51.916;4.574;2023-05-25T09:56:47;102999.94;;;16.46;61.02
61506;BME280;47366;51.916;4.574;2023-05-25T09:59:12;102997.38;;;16.78;60.11
61506;BME280;47366;51.916;4.574;2023-05-25T10:01:38;102995.31;;;16.83;58.64
61506;BME280;47366;51.916;4.574;2023-05-25T10:04:04;102987.50;;;17.26;58.12
61506;BME280;47366;51.916;4.574;2023-05-25T10:06:31;102989.06;;;17.95;57.65
61506;BME280;47366;51.916;4.574;2023-05-25T10:08:57;102988.69;;;18.48;56.27
61506;BME280;47366;51.916;4.574;2023-05-25T10:11:24;102984.09;;;18.48;54.95
61506;BME280;47366;51.916;4.574;2023-05-25T10:13:52;102986.25;;;18.27;56.03
61506;BME280;47366;51.916;4.574;2023-05-25T10:16:24;102979.78;;;17.82;54.93
61506;BME280;47366;51.916;4.574;2023-05-25T10:18:59;102989.31;;;17.75;55.96
61506;BME280;47366;51.916;4.574;2023-05-25T10:21:28;102985.59;;;18.23;55.26
61506;BME280;47366;51.916;4.574;2023-05-25T10:24:03;102989.84;;;18.74;54.72
61506;BME280;47366;51.916;4.574;2023-05-25T10:26:32;102976.34;;;19.14;54.03
61506;BME280;47366;51.916;4.574;2023-05-25T10:29:00;102977.34;;;19.41;53.13
61506;BME280;47366;51.916;4.574;2023-05-25T10:31:28;102988.81;;;19.77;51.60
61506;BME280;47366;51.916;4.574;2023-05-25T10:33:54;102979.81;;;19.87;50.61
61506;BME280;47366;51.916;4.574;2023-05-25T10:36:22;102992.34;;;20.06;50.09
61506;BME280;47366;51.916;4.574;2023-05-25T10:38:50;102986.13;;;20.17;49.66
61506;BME280;47366;51.916;4.574;2023-05-25T10:41:18;102993.00;;;20.36;50.12
61506;BME280;47366;51.916;4.574;2023-05-25T10:43:44;102983.97;;;20.34;47.52
61506;BME280;47366;51.916;4.574;2023-05-25T10:46:10;102982.59;;;19.73;48.80
61506;BME280;47366;51.916;4.574;2023-05-25T10:48:47;102986.66;;;19.53;48.48
61506;BME280;47366;51.916;4.574;2023-05-25T10:51:13;102990.88;;;19.30;50.08
61506;BME280;47366;51.916;4.574;2023-05-25T10:53:46;102992.09;;;19.12;50.84
61506;BME280;47366;51.916;4.574;2023-05-25T10:56:12;102987.75;;;18.93;51.47
61506;BME280;47366;51.916;4.574;2023-05-25T10:58:42;102991.34;;;18.79;51.54
61506;BME280;47366;51.916;4.574;2023-05-25T11:01:12;102998.72;;;18.63;52.54
61506;BME280;47366;51.916;4.574;2023-05-25T11:06:13;102992.47;;;18.31;52.69
61506;BME280;47366;51.916;4.574;2023-05-25T11:11:18;102980.72;;;18.13;53.44
61506;BME280;47366;51.916;4.574;2023-05-25T11:13:48;102987.09;;;18.13;53.41
61506;BME280;47366;51.916;4.574;2023-05-25T11:18:55;102986.09;;;18.75;52.86
61506;BME280;47366;51.916;4.574;2023-05-25T11:23:59;102989.22;;;18.68;52.27
61506;BME280;47366;51.916;4.574;2023-05-25T11:26:32;102987.34;;;18.55;53.16
61506;BME280;47366;51.916;4.574;2023-05-25T11:28:59;102986.84;;;18.48;53.14
61506;BME280;47366;51.916;4.574;2023-05-25T11:33:54;102977.84;;;18.30;53.33
61506;BME280;47366;51.916;4.574;2023-05-25T11:36:22;102963.00;;;18.18;53.73
61506;BME280;47366;51.916;4.574;2023-05-25T11:38:47;102977.63;;;18.19;53.96
61506;BME280;47366;51.916;4.574;2023-05-25T11:41:20;102988.72;;;18.32;53.31
61506;BME280;47366;51.916;4.574;2023-05-25T11:43:49;102972.88;;;18.37;53.10
61506;BME280;47366;51.916;4.574;2023-05-25T11:46:17;102969.00;;;18.25;53.67
61506;BME280;47366;51.916;4.574;2023-05-25T11:48:54;102980.91;;;18.10;54.01
61506;BME280;47366;51.916;4.574;2023-05-25T11:51:22;102974.75;;;17.90;54.38
61506;BME280;47366;51.916;4.574;2023-05-25T11:53:47;102973.66;;;17.77;55.17
61506;BME280;47366;51.916;4.574;2023-05-25T11:56:14;102975.69;;;17.73;55.71
61506;BME280;47366;51.916;4.574;2023-05-25T11:58:40;102986.28;;;17.79;55.11
61506;BME280;47366;51.916;4.574;2023-05-25T12:01:15;102981.72;;;17.96;55.35
61506;BME280;47366;51.916;4.574;2023-05-25T12:03:45;102965.94;;;17.99;55.27
61506;BME280;47366;51.916;4.574;2023-05-25T12:06:24;102972.41;;;18.14;54.80
61506;BME280;47366;51.916;4.574;2023-05-25T12:08:53;102974.09;;;18.17;54.58
61506;BME280;47366;51.916;4.574;2023-05-25T12:11:35;102969.41;;;18.03;52.54
61506;BME280;47366;51.916;4.574;2023-05-25T12:14:04;102971.56;;;17.98;52.98
61506;BME280;47366;51.916;4.574;2023-05-25T12:16:33;102965.69;;;18.04;53.01
61506;BME280;47366;51.916;4.574;2023-05-25T12:19:01;102965.88;;;18.01;53.28
61506;BME280;47366;51.916;4.574;2023-05-25T12:21:27;102960.25;;;17.88;53.11
61506;BME280;47366;51.916;4.574;2023-05-25T12:23:53;102971.03;;;17.91;52.37
61506;BME280;47366;51.916;4.574;2023-05-25T12:26:19;102967.59;;;17.88;53.34
61506;BME280;47366;51.916;4.574;2023-05-25T12:31:30;102978.25;;;17.92;54.25
61506;BME280;47366;51.916;4.574;2023-05-25T12:34:13;102974.91;;;17.87;53.78
61506;BME280;47366;51.916;4.574;2023-05-25T12:36:39;102975.63;;;17.91;54.38
61506;BME280;47366;51.916;4.574;2023-05-25T12:39:06;102966.34;;;17.93;54.28
61506;BME280;47366;51.916;4.574;2023-05-25T12:41:50;102964.19;;;17.82;52.74
61506;BME280;47366;51.916;4.574;2023-05-25T12:46:42;102975.28;;;17.81;53.72
61506;BME280;47366;51.916;4.574;2023-05-25T12:49:27;102972.09;;;17.89;53.61
61506;BME280;47366;51.916;4.574;2023-05-25T12:51:53;102970.69;;;17.97;54.05
61506;BME280;47366;51.916;4.574;2023-05-25T12:54:36;102971.16;;;18.04;53.05
61506;BME280;47366;51.916;4.574;2023-05-25T12:57:03;102968.00;;;17.96;52.83
61506;BME280;47366;51.916;4.574;2023-05-25T12:59:29;102961.91;;;17.91;53.88
61506;BME280;47366;51.916;4.574;2023-05-25T13:01:58;102957.22;;;17.93;53.79
61506;BME280;47366;51.916;4.574;2023-05-25T13:04:23;102953.41;;;17.95;54.38
61506;BME280;47366;51.916;4.574;2023-05-25T13:06:49;102955.19;;;17.96;54.03
61506;BME280;47366;51.916;4.574;2023-05-25T13:09:14;102947.28;;;18.06;53.49
61506;BME280;47366;51.916;4.574;2023-05-25T13:11:40;102960.38;;;18.17;53.01
61506;BME280;47366;51.916;4.574;2023-05-25T13:14:06;102951.00;;;18.05;53.21